sensor_id;sensor_type;location;lat;lon;timestamp;P1;durP1;ratioP1;P2;durP2;ratioP2
72125;SDS011;59999;51.676;22.650;2023-05-10T00:01:03;9.27;;;3.55;;
72125;SDS011;59999;51.676;22.650;2023-05-10T00:03:29;11.47;;;4.10;;
72125;SDS011;59999;51.676;22.650;2023-05-10T00:05:55;9.05;;;4.03;;
72125;SDS011;59999;51.676;22.650;2023-05-10T00:08:20;9.18;;;3.83;;
72125;SDS011;59999;51.676;22.650;2023-05-10T00:10:47;10.40;;;3.70;;
72125;SDS011;59999;51.676;22.650;2023-05-10T00:13:12;8.90;;;3.60;;
72125;SDS011;59999;51.676;22.650;2023-05-10T00:15:39;9.98;;;3.88;;
72125;SDS011;59999;51.676;22.650;2023-05-10T00:18:05;9.93;;;3.40;;
72125;SDS011;59999;51.676;22.650;2023-05-10T00:20:31;11.10;;;3.60;;
72125;SDS011;59999;51.676;22.650;2023-05-10T00:22:56;8.40;;;3.42;;
72125;SDS011;59999;51.676;22.650;2023-05-10T00:25:23;9.93;;;3.58;;
72125;SDS011;59999;51.676;22.650;2023-05-10T00:27:49;10.33;;;3.43;;
72125;SDS011;59999;51.676;22.650;2023-05-10T00:30:15;11.00;;;3.75;;
72125;SDS011;59999;51.676;22.650;2023-05-10T00:32:41;10.18;;;3.65;;
72125;SDS011;59999;51.676;22.650;2023-05-10T00:35:07;12.07;;;3.72;;
72125;SDS011;59999;51.676;22.650;2023-05-10T00:37:33;10.70;;;3.50;;
72125;SDS011;59999;51.676;22.650;2023-05-10T00:39:59;9.10;;;3.47;;
72125;SDS011;59999;51.676;22.650;2023-05-10T00:42:25;8.95;;;3.38;;
72125;SDS011;59999;51.676;22.650;2023-05-10T00:44:51;8.23;;;3.00;;
72125;SDS011;59999;51.676;22.650;2023-05-10T00:47:17;11.20;;;3.63;;
72125;SDS011;59999;51.676;22.650;2023-05-10T00:49:44;10.02;;;3.10;;
72125;SDS011;59999;51.676;22.650;2023-05-10T00:52:10;7.90;;;3.20;;
72125;SDS011;59999;51.676;22.650;2023-05-10T00:54:37;9.90;;;3.38;;
72125;SDS011;59999;51.676;22.650;2023-05-10T00:57:03;9.57;;;3.40;;
72125;SDS011;59999;51.676;22.650;2023-05-10T00:59:29;8.48;;;3.08;;
72125;SDS011;59999;51.676;22.650;2023-05-10T01:01:55;9.35;;;3.42;;
72125;SDS011;59999;51.676;22.650;2023-05-10T01:04:21;9.20;;;3.20;;
72125;SDS011;59999;51.676;22.650;2023-05-10T01:06:53;9.85;;;3.15;;
72125;SDS011;59999;51.676;22.650;2023-05-10T01:09:20;9.85;;;3.50;;
72125;SDS011;59999;51.676;22.650;2023-05-10T01:11:47;9.27;;;3.17;;
72125;SDS011;59999;51.676;22.650;2023-05-10T01:14:14;11.93;;;3.22;;
72125;SDS011;59999;51.676;22.650;2023-05-10T01:16:41;8.73;;;3.30;;
72125;SDS011;59999;51.676;22.650;2023-05-10T01:19:14;9.15;;;2.88;;
72125;SDS011;59999;51.676;22.650;2023-05-10T01:37:50;7.93;;;2.85;;
72125;SDS011;59999;51.676;22.650;2023-05-10T01:40:20;8.52;;;2.90;;
72125;SDS011;59999;51.676;22.650;2023-05-10T01:42:59;8.18;;;2.90;;
72125;SDS011;59999;51.676;22.650;2023-05-10T01:45:39;8.38;;;3.10;;
72125;SDS011;59999;51.676;22.650;2023-05-10T01:48:11;8.52;;;3.05;;
72125;SDS011;59999;51.676;22.650;2023-05-10T01:50:41;9.38;;;3.10;;
72125;SDS011;59999;51.676;22.650;2023-05-10T01:53:09;10.48;;;3.20;;
72125;SDS011;59999;51.676;22.650;2023-05-10T01:55:45;10.02;;;3.17;;
72125;SDS011;59999;51.676;22.650;2023-05-10T01:58:18;8.25;;;2.92;;
72125;SDS011;59999;51.676;22.650;2023-05-10T02:00:48;9.30;;;2.83;;
72125;SDS011;59999;51.676;22.650;2023-05-10T02:03:15;9.75;;;2.78;;
72125;SDS011;59999;51.676;22.650;2023-05-10T02:05:44;9.07;;;2.97;;
72125;SDS011;59999;51.676;22.650;2023-05-10T02:08:12;8.57;;;2.60;;
72125;SDS011;59999;51.676;22.650;2023-05-10T02:10:41;10.93;;;2.88;;
72125;SDS011;59999;51.676;22.650;2023-05-10T02:13:08;8.75;;;2.65;;
72125;SDS011;59999;51.676;22.650;2023-05-10T02:15:37;10.73;;;3.00;;
72125;SDS011;59999;51.676;22.650;2023-05-10T02:18:05;8.88;;;2.47;;
72125;SDS011;59999;51.676;22.650;2023-05-10T02:20:32;7.88;;;2.55;;
72125;SDS011;59999;51.676;22.650;2023-05-10T02:23:00;10.77;;;3.10;;
72125;SDS011;59999;51.676;22.650;2023-05-10T02:25:27;8.10;;;2.90;;
72125;SDS011;59999;51.676;22.650;2023-05-10T02:27:55;7.90;;;2.63;;
72125;SDS011;59999;51.676;22.650;2023-05-10T02:30:22;8.60;;;3.38;;
72125;SDS011;59999;51.676;22.650;2023-05-10T02:32:49;7.38;;;2.80;;
72125;SDS011;59999;51.676;22.650;2023-05-10T02:35:17;11.18;;;2.97;;
72125;SDS011;59999;51.676;22.650;2023-05-10T02:37:43;7.47;;;2.60;;
72125;SDS011;59999;51.676;22.650;2023-05-10T02:40:11;7.65;;;2.90;;
72125;SDS011;59999;51.676;22.650;2023-05-10T02:42:40;6.97;;;2.70;;
72125;SDS011;59999;51.676;22.650;2023-05-10T02:45:10;7.07;;;2.38;;
72125;SDS011;59999;51.676;22.650;2023-05-10T02:47:38;8.88;;;2.90;;
72125;SDS011;59999;51.676;22.650;2023-05-10T02:50:06;8.95;;;2.65;;
72125;SDS011;59999;51.676;22.650;2023-05-10T02:52:54;10.25;;;2.75;;
72125;SDS011;59999;51.676;22.650;2023-05-10T02:55:22;8.38;;;2.67;;
72125;SDS011;59999;51.676;22.650;2023-05-10T02:57:53;8.27;;;2.50;;
72125;SDS011;59999;51.676;22.650;2023-05-10T03:00:23;12.20;;;2.90;;
72125;SDS011;59999;51.676;22.650;2023-05-10T03:02:50;9.52;;;2.85;;
72125;SDS011;59999;51.676;22.650;2023-05-10T03:05:16;10.25;;;3.08;;
72125;SDS011;59999;51.676;22.650;2023-05-10T03:07:42;10.35;;;2.67;;
72125;SDS011;59999;51.676;22.650;2023-05-10T03:10:09;10.10;;;3.05;;
72125;SDS011;59999;51.676;22.650;2023-05-10T03:12:41;7.50;;;2.60;;
72125;SDS011;59999;51.676;22.650;2023-05-10T03:18:29;7.40;;;2.78;;
72125;SDS011;59999;51.676;22.650;2023-05-10T03:21:10;8.20;;;2.92;;
72125;SDS011;59999;51.676;22.650;2023-05-10T03:23:41;8.07;;;2.50;;
72125;SDS011;59999;51.676;22.650;2023-05-10T03:26:16;7.77;;;2.67;;
72125;SDS011;59999;51.676;22.650;2023-05-10T03:28:45;8.77;;;2.65;;
72125;SDS011;59999;51.676;22.650;2023-05-10T03:31:14;8.68;;;2.88;;
72125;SDS011;59999;51.676;22.650;2023-05-10T03:33:49;7.45;;;2.60;;
72125;SDS011;59999;51.676;22.650;2023-05-10T03:36:16;8.45;;;2.80;;
72125;SDS011;59999;51.676;22.650;2023-05-10T03:38:43;7.73;;;2.77;;
72125;SDS011;59999;51.676;22.650;2023-05-10T03:41:09;9.02;;;2.83;;
72125;SDS011;59999;51.676;22.650;2023-05-10T03:43:35;9.82;;;2.92;;
72125;SDS011;59999;51.676;22.650;2023-05-10T03:46:01;8.65;;;2.95;;
72125;SDS011;59999;51.676;22.650;2023-05-10T03:48:31;7.53;;;2.65;;
72125;SDS011;59999;51.676;22.650;2023-05-10T03:50:58;13.10;;;3.00;;
72125;SDS011;59999;51.676;22.650;2023-05-10T03:53:24;7.22;;;2.33;;
72125;SDS011;59999;51.676;22.650;2023-05-10T03:55:50;7.10;;;2.10;;
72125;SDS011;59999;51.676;22.650;2023-05-10T03:58:16;7.87;;;2.80;;
72125;SDS011;59999;51.676;22.650;2023-05-10T04:00:42;7.88;;;2.70;;
72125;SDS011;59999;51.676;22.650;2023-05-10T04:03:11;12.75;;;3.38;;
72125;SDS011;59999;51.676;22.650;2023-05-10T04:05:38;6.97;;;2.25;;
72125;SDS011;59999;51.676;22.650;2023-05-10T04:08:04;8.25;;;2.65;;
72125;SDS011;59999;51.676;22.650;2023-05-10T04:10:31;9.07;;;2.70;;
72125;SDS011;59999;51.676;22.650;2023-05-10T04:12:57;8.85;;;2.83;;
72125;SDS011;59999;51.676;22.650;2023-05-10T04:15:23;7.47;;;2.60;;
72125;SDS011;59999;51.676;22.650;2023-05-10T04:17:49;7.68;;;2.50;;
72125;SDS011;59999;51.676;22.650;2023-05-10T04:20:15;7.47;;;2.57;;
72125;SDS011;59999;51.676;22.650;2023-05-10T04:22:41;10.05;;;2.60;;
72125;SDS011;59999;51.676;22.650;2023-05-10T04:25:08;9.07;;;2.58;;
72125;SDS011;59999;51.676;22.650;2023-05-10T04:27:34;10.07;;;2.90;;
72125;SDS011;59999;51.676;22.650;2023-05-10T04:30:00;9.05;;;2.55;;
72125;SDS011;59999;51.676;22.650;2023-05-10T04:32:27;7.05;;;2.55;;
72125;SDS011;59999;51.676;22.650;2023-05-10T04:34:53;8.57;;;2.70;;
72125;SDS011;59999;51.676;22.650;2023-05-10T04:37:19;8.43;;;2.53;;
72125;SDS011;59999;51.676;22.650;2023-05-10T04:39:47;6.32;;;2.25;;
72125;SDS011;59999;51.676;22.650;2023-05-10T04:42:12;7.63;;;2.63;;
72125;SDS011;59999;51.676;22.650;2023-05-10T04:44:40;7.28;;;2.50;;
72125;SDS011;59999;51.676;22.650;2023-05-10T04:47:06;10.23;;;2.80;;
72125;SDS011;59999;51.676;22.650;2023-05-10T04:49:32;7.85;;;2.60;;
72125;SDS011;59999;51.676;22.650;2023-05-10T04:51:58;6.63;;;2.03;;
72125;SDS011;59999;51.676;22.650;2023-05-10T04:54:24;8.10;;;2.63;;
72125;SDS011;59999;51.676;22.650;2023-05-10T04:56:50;5.70;;;2.30;;
72125;SDS011;59999;51.676;22.650;2023-05-10T04:59:16;7.45;;;2.45;;
72125;SDS011;59999;51.676;22.650;2023-05-10T05:01:42;5.87;;;2.40;;
72125;SDS011;59999;51.676;22.650;2023-05-10T05:04:08;9.23;;;2.45;;
72125;SDS011;59999;51.676;22.650;2023-05-10T05:06:34;8.07;;;2.15;;
72125;SDS011;59999;51.676;22.650;2023-05-10T05:09:00;6.60;;;2.42;;
72125;SDS011;59999;51.676;22.650;2023-05-10T05:11:26;7.50;;;2.50;;
72125;SDS011;59999;51.676;22.650;2023-05-10T05:13:52;6.35;;;2.38;;
72125;SDS011;59999;51.676;22.650;2023-05-10T05:16:18;9.18;;;2.58;;
72125;SDS011;59999;51.676;22.650;2023-05-10T05:18:45;6.80;;;2.55;;
72125;SDS011;59999;51.676;22.650;2023-05-10T05:21:14;7.80;;;2.60;;
72125;SDS011;59999;51.676;22.650;2023-05-10T05:23:41;6.75;;;2.60;;
72125;SDS011;59999;51.676;22.650;2023-05-10T05:26:07;5.75;;;2.20;;
72125;SDS011;59999;51.676;22.650;2023-05-10T05:28:34;7.43;;;2.40;;
72125;SDS011;59999;51.676;22.650;2023-05-10T05:31:02;8.37;;;2.60;;
72125;SDS011;59999;51.676;22.650;2023-05-10T05:33:30;8.60;;;2.67;;
72125;SDS011;59999;51.676;22.650;2023-05-10T05:35:55;8.60;;;2.80;;
72125;SDS011;59999;51.676;22.650;2023-05-10T05:38:22;9.85;;;2.92;;
72125;SDS011;59999;51.676;22.650;2023-05-10T05:40:48;9.47;;;3.30;;
72125;SDS011;59999;51.676;22.650;2023-05-10T05:43:15;8.82;;;3.28;;
72125;SDS011;59999;51.676;22.650;2023-05-10T05:45:40;7.07;;;2.90;;
72125;SDS011;59999;51.676;22.650;2023-05-10T05:48:06;8.20;;;2.88;;
72125;SDS011;59999;51.676;22.650;2023-05-10T05:50:32;8.10;;;2.90;;
72125;SDS011;59999;51.676;22.650;2023-05-10T05:52:58;7.75;;;2.97;;
72125;SDS011;59999;51.676;22.650;2023-05-10T05:55:24;6.57;;;2.93;;
72125;SDS011;59999;51.676;22.650;2023-05-10T05:57:51;7.10;;;3.30;;
72125;SDS011;59999;51.676;22.650;2023-05-10T06:00:17;10.63;;;2.90;;
72125;SDS011;59999;51.676;22.650;2023-05-10T06:02:43;8.27;;;2.45;;
72125;SDS011;59999;51.676;22.650;2023-05-10T06:05:09;6.40;;;2.40;;
72125;SDS011;59999;51.676;22.650;2023-05-10T06:07:35;7.15;;;2.53;;
72125;SDS011;59999;51.676;22.650;2023-05-10T06:10:01;7.20;;;2.40;;
72125;SDS011;59999;51.676;22.650;2023-05-10T06:12:28;9.18;;;2.65;;
72125;SDS011;59999;51.676;22.650;2023-05-10T06:14:55;8.73;;;2.60;;
72125;SDS011;59999;51.676;22.650;2023-05-10T06:17:21;9.52;;;2.42;;
72125;SDS011;59999;51.676;22.650;2023-05-10T06:19:47;7.35;;;2.30;;
72125;SDS011;59999;51.676;22.650;2023-05-10T06:22:13;7.97;;;2.20;;
72125;SDS011;59999;51.676;22.650;2023-05-10T06:24:38;7.82;;;2.70;;
72125;SDS011;59999;51.676;22.650;2023-05-10T06:27:05;5.60;;;2.17;;
72125;SDS011;59999;51.676;22.650;2023-05-10T06:29:31;6.90;;;2.72;;
72125;SDS011;59999;51.676;22.650;2023-05-10T06:31:58;7.90;;;3.00;;
72125;SDS011;59999;51.676;22.650;2023-05-10T06:34:24;7.35;;;2.58;;
72125;SDS011;59999;51.676;22.650;2023-05-10T06:36:50;9.65;;;2.90;;
72125;SDS011;59999;51.676;22.650;2023-05-10T06:39:17;8.48;;;2.75;;
72125;SDS011;59999;51.676;22.650;2023-05-10T06:41:43;7.47;;;2.97;;
72125;SDS011;59999;51.676;22.650;2023-05-10T06:44:08;10.67;;;3.00;;
72125;SDS011;59999;51.676;22.650;2023-05-10T06:46:35;7.93;;;3.05;;
72125;SDS011;59999;51.676;22.650;2023-05-10T06:49:01;8.85;;;3.70;;
72125;SDS011;59999;51.676;22.650;2023-05-10T06:51:27;9.50;;;3.47;;
72125;SDS011;59999;51.676;22.650;2023-05-10T06:53:52;6.57;;;2.67;;
72125;SDS011;59999;51.676;22.650;2023-05-10T06:56:18;8.55;;;2.90;;
72125;SDS011;59999;51.676;22.650;2023-05-10T06:58:47;8.55;;;2.85;;
72125;SDS011;59999;51.676;22.650;2023-05-10T07:01:13;5.90;;;2.43;;
72125;SDS011;59999;51.676;22.650;2023-05-10T07:03:39;9.43;;;2.05;;
72125;SDS011;59999;51.676;22.650;2023-05-10T07:06:06;8.10;;;2.53;;
72125;SDS011;59999;51.676;22.650;2023-05-10T07:08:33;6.80;;;2.38;;
72125;SDS011;59999;51.676;22.650;2023-05-10T07:11:03;6.67;;;1.83;;
72125;SDS011;59999;51.676;22.650;2023-05-10T07:13:32;6.50;;;1.95;;
72125;SDS011;59999;51.676;22.650;2023-05-10T07:15:59;7.78;;;1.90;;
72125;SDS011;59999;51.676;22.650;2023-05-10T07:18:25;5.57;;;1.70;;
72125;SDS011;59999;51.676;22.650;2023-05-10T07:20:52;7.70;;;1.92;;
72125;SDS011;59999;51.676;22.650;2023-05-10T07:23:18;5.40;;;1.77;;
72125;SDS011;59999;51.676;22.650;2023-05-10T07:25:45;6.90;;;2.35;;
72125;SDS011;59999;51.676;22.650;2023-05-10T07:28:12;9.38;;;2.00;;
72125;SDS011;59999;51.676;22.650;2023-05-10T07:30:39;7.30;;;1.80;;
72125;SDS011;59999;51.676;22.650;2023-05-10T07:33:04;6.27;;;1.73;;
72125;SDS011;59999;51.676;22.650;2023-05-10T07:35:30;5.40;;;1.58;;
72125;SDS011;59999;51.676;22.650;2023-05-10T07:37:57;5.63;;;1.70;;
72125;SDS011;59999;51.676;22.650;2023-05-10T07:40:23;7.60;;;1.85;;
72125;SDS011;59999;51.676;22.650;2023-05-10T07:42:48;4.30;;;1.60;;
72125;SDS011;59999;51.676;22.650;2023-05-10T07:45:14;4.22;;;1.50;;
72125;SDS011;59999;51.676;22.650;2023-05-10T07:47:40;5.00;;;1.58;;
72125;SDS011;59999;51.676;22.650;2023-05-10T07:50:07;5.35;;;1.90;;
72125;SDS011;59999;51.676;22.650;2023-05-10T07:52:33;4.50;;;1.47;;
72125;SDS011;59999;51.676;22.650;2023-05-10T07:54:59;6.22;;;1.60;;
72125;SDS011;59999;51.676;22.650;2023-05-10T07:57:25;5.50;;;1.50;;
72125;SDS011;59999;51.676;22.650;2023-05-10T07:59:51;6.05;;;1.63;;
72125;SDS011;59999;51.676;22.650;2023-05-10T08:02:16;4.97;;;1.50;;
72125;SDS011;59999;51.676;22.650;2023-05-10T08:04:43;5.68;;;1.50;;
72125;SDS011;59999;51.676;22.650;2023-05-10T08:07:08;4.57;;;1.67;;
72125;SDS011;59999;51.676;22.650;2023-05-10T08:09:35;7.27;;;1.60;;
72125;SDS011;59999;51.676;22.650;2023-05-10T08:12:01;4.68;;;1.15;;
72125;SDS011;59999;51.676;22.650;2023-05-10T08:14:28;6.30;;;1.80;;
72125;SDS011;59999;51.676;22.650;2023-05-10T08:16:55;8.30;;;2.17;;
72125;SDS011;59999;51.676;22.650;2023-05-10T08:19:21;8.20;;;1.80;;
72125;SDS011;59999;51.676;22.650;2023-05-10T08:21:49;6.37;;;1.53;;
72125;SDS011;59999;51.676;22.650;2023-05-10T08:24:15;5.32;;;1.52;;
72125;SDS011;59999;51.676;22.650;2023-05-10T08:26:41;4.10;;;1.40;;
72125;SDS011;59999;51.676;22.650;2023-05-10T08:29:07;4.65;;;1.48;;
72125;SDS011;59999;51.676;22.650;2023-05-10T08:31:32;4.60;;;1.40;;
72125;SDS011;59999;51.676;22.650;2023-05-10T08:33:59;6.50;;;1.60;;
72125;SDS011;59999;51.676;22.650;2023-05-10T08:36:25;4.50;;;1.48;;
72125;SDS011;59999;51.676;22.650;2023-05-10T08:38:52;5.53;;;1.88;;
72125;SDS011;59999;51.676;22.650;2023-05-10T08:41:19;5.57;;;1.90;;
72125;SDS011;59999;51.676;22.650;2023-05-10T08:43:47;10.10;;;1.90;;
72125;SDS011;59999;51.676;22.650;2023-05-10T08:46:16;6.50;;;1.90;;
72125;SDS011;59999;51.676;22.650;2023-05-10T08:48:47;5.43;;;1.70;;
72125;SDS011;59999;51.676;22.650;2023-05-10T08:51:15;5.22;;;1.90;;
72125;SDS011;59999;51.676;22.650;2023-05-10T08:53:44;6.67;;;1.70;;
72125;SDS011;59999;51.676;22.650;2023-05-10T08:56:10;5.50;;;1.60;;
72125;SDS011;59999;51.676;22.650;2023-05-10T08:58:37;5.65;;;1.90;;
72125;SDS011;59999;51.676;22.650;2023-05-10T09:01:03;5.03;;;1.58;;
72125;SDS011;59999;51.676;22.650;2023-05-10T09:03:31;5.07;;;1.70;;
72125;SDS011;59999;51.676;22.650;2023-05-10T09:05:57;6.67;;;1.90;;
72125;SDS011;59999;51.676;22.650;2023-05-10T09:08:24;6.05;;;1.65;;
72125;SDS011;59999;51.676;22.650;2023-05-10T09:10:51;5.68;;;1.70;;
72125;SDS011;59999;51.676;22.650;2023-05-10T09:13:18;5.75;;;1.70;;
72125;SDS011;59999;51.676;22.650;2023-05-10T09:15:45;4.90;;;1.70;;
72125;SDS011;59999;51.676;22.650;2023-05-10T09:18:11;6.10;;;1.90;;
72125;SDS011;59999;51.676;22.650;2023-05-10T09:20:37;6.32;;;1.65;;
72125;SDS011;59999;51.676;22.650;2023-05-10T09:23:03;6.47;;;2.15;;
72125;SDS011;59999;51.676;22.650;2023-05-10T09:25:30;6.50;;;2.03;;
72125;SDS011;59999;51.676;22.650;2023-05-10T09:27:58;6.38;;;2.33;;
72125;SDS011;59999;51.676;22.650;2023-05-10T09:30:26;5.27;;;1.80;;
72125;SDS011;59999;51.676;22.650;2023-05-10T09:32:54;6.60;;;1.95;;
72125;SDS011;59999;51.676;22.650;2023-05-10T09:35:22;5.47;;;2.00;;
72125;SDS011;59999;51.676;22.650;2023-05-10T09:37:50;7.10;;;2.10;;
72125;SDS011;59999;51.676;22.650;2023-05-10T09:40:18;6.78;;;2.05;;
72125;SDS011;59999;51.676;22.650;2023-05-10T09:42:58;6.13;;;1.90;;
72125;SDS011;59999;51.676;22.650;2023-05-10T09:45:34;6.30;;;2.10;;
72125;SDS011;59999;51.676;22.650;2023-05-10T09:48:01;6.68;;;2.40;;
72125;SDS011;59999;51.676;22.650;2023-05-10T09:50:28;5.28;;;1.70;;
72125;SDS011;59999;51.676;22.650;2023-05-10T09:52:56;6.53;;;2.20;;
72125;SDS011;59999;51.676;22.650;2023-05-10T09:55:24;5.27;;;2.00;;
72125;SDS011;59999;51.676;22.650;2023-05-10T09:58:03;6.18;;;1.80;;
72125;SDS011;59999;51.676;22.650;2023-05-10T10:00:34;6.13;;;2.30;;
72125;SDS011;59999;51.676;22.650;2023-05-10T10:03:02;5.95;;;2.08;;
72125;SDS011;59999;51.676;22.650;2023-05-10T10:05:32;5.15;;;2.00;;
72125;SDS011;59999;51.676;22.650;2023-05-10T10:08:00;5.23;;;2.10;;
72125;SDS011;59999;51.676;22.650;2023-05-10T10:10:28;5.15;;;1.92;;
72125;SDS011;59999;51.676;22.650;2023-05-10T10:12:54;8.10;;;2.08;;
72125;SDS011;59999;51.676;22.650;2023-05-10T10:15:21;4.63;;;1.98;;
72125;SDS011;59999;51.676;22.650;2023-05-10T10:17:48;4.35;;;1.85;;
72125;SDS011;59999;51.676;22.650;2023-05-10T10:20:15;7.00;;;1.83;;
72125;SDS011;59999;51.676;22.650;2023-05-10T10:22:42;6.97;;;1.90;;
72125;SDS011;59999;51.676;22.650;2023-05-10T10:25:10;6.75;;;2.05;;
72125;SDS011;59999;51.676;22.650;2023-05-10T10:36:02;4.85;;;1.55;;
72125;SDS011;59999;51.676;22.650;2023-05-10T10:39:05;5.35;;;1.60;;
72125;SDS011;59999;51.676;22.650;2023-05-10T10:41:35;7.57;;;2.00;;
72125;SDS011;59999;51.676;22.650;2023-05-10T10:47:00;7.00;;;1.70;;
72125;SDS011;59999;51.676;22.650;2023-05-10T10:52:30;5.38;;;2.03;;
72125;SDS011;59999;51.676;22.650;2023-05-10T10:57:27;6.18;;;1.92;;
72125;SDS011;59999;51.676;22.650;2023-05-10T11:02:45;6.38;;;1.67;;
72125;SDS011;59999;51.676;22.650;2023-05-10T11:05:24;5.70;;;2.05;;
72125;SDS011;59999;51.676;22.650;2023-05-10T11:08:09;5.95;;;1.88;;
72125;SDS011;59999;51.676;22.650;2023-05-10T11:13:28;6.37;;;1.90;;
72125;SDS011;59999;51.676;22.650;2023-05-10T11:15:56;5.32;;;1.80;;
72125;SDS011;59999;51.676;22.650;2023-05-10T11:18:26;3.90;;;1.60;;
72125;SDS011;59999;51.676;22.650;2023-05-10T11:20:58;7.20;;;1.70;;
72125;SDS011;59999;51.676;22.650;2023-05-10T11:23:31;4.45;;;1.70;;
72125;SDS011;59999;51.676;22.650;2023-05-10T11:26:13;6.23;;;1.97;;
72125;SDS011;59999;51.676;22.650;2023-05-10T11:28:46;5.80;;;1.83;;
72125;SDS011;59999;51.676;22.650;2023-05-10T11:31:14;4.70;;;2.00;;
72125;SDS011;59999;51.676;22.650;2023-05-10T11:33:48;4.22;;;1.77;;
72125;SDS011;59999;51.676;22.650;2023-05-10T11:36:20;4.07;;;1.60;;
72125;SDS011;59999;51.676;22.650;2023-05-10T11:38:47;5.90;;;1.27;;
72125;SDS011;59999;51.676;22.650;2023-05-10T11:41:15;6.82;;;1.63;;
72125;SDS011;59999;51.676;22.650;2023-05-10T11:43:42;5.07;;;1.83;;
72125;SDS011;59999;51.676;22.650;2023-05-10T11:46:11;4.40;;;1.58;;
72125;SDS011;59999;51.676;22.650;2023-05-10T11:48:38;8.10;;;1.55;;
72125;SDS011;59999;51.676;22.650;2023-05-10T11:51:08;5.70;;;1.97;;
72125;SDS011;59999;51.676;22.650;2023-05-10T11:53:35;5.78;;;1.77;;
72125;SDS011;59999;51.676;22.650;2023-05-10T11:56:08;4.47;;;1.67;;
72125;SDS011;59999;51.676;22.650;2023-05-10T11:58:36;8.45;;;1.90;;
72125;SDS011;59999;51.676;22.650;2023-05-10T12:01:03;5.68;;;2.00;;
72125;SDS011;59999;51.676;22.650;2023-05-10T12:03:30;5.30;;;1.80;;
72125;SDS011;59999;51.676;22.650;2023-05-10T12:05:57;5.65;;;2.00;;
72125;SDS011;59999;51.676;22.650;2023-05-10T12:08:25;7.13;;;2.10;;
72125;SDS011;59999;51.676;22.650;2023-05-10T12:10:53;6.57;;;1.80;;
72125;SDS011;59999;51.676;22.650;2023-05-10T12:13:28;6.75;;;1.90;;
72125;SDS011;59999;51.676;22.650;2023-05-10T12:15:58;6.57;;;2.10;;
72125;SDS011;59999;51.676;22.650;2023-05-10T12:18:24;5.50;;;1.90;;
72125;SDS011;59999;51.676;22.650;2023-05-10T12:20:54;5.75;;;1.88;;
72125;SDS011;59999;51.676;22.650;2023-05-10T12:23:20;5.97;;;1.85;;
72125;SDS011;59999;51.676;22.650;2023-05-10T12:25:46;4.85;;;1.70;;
72125;SDS011;59999;51.676;22.650;2023-05-10T12:28:12;8.37;;;1.90;;
72125;SDS011;59999;51.676;22.650;2023-05-10T12:30:38;6.55;;;1.65;;
72125;SDS011;59999;51.676;22.650;2023-05-10T12:33:11;4.80;;;1.90;;
72125;SDS011;59999;51.676;22.650;2023-05-10T12:35:48;4.78;;;1.63;;
72125;SDS011;59999;51.676;22.650;2023-05-10T12:40:50;7.20;;;2.00;;
72125;SDS011;59999;51.676;22.650;2023-05-10T12:43:16;5.80;;;1.70;;
72125;SDS011;59999;51.676;22.650;2023-05-10T12:45:42;4.45;;;1.50;;
72125;SDS011;59999;51.676;22.650;2023-05-10T12:48:13;5.10;;;1.80;;
72125;SDS011;59999;51.676;22.650;2023-05-10T12:50:39;5.72;;;1.73;;
72125;SDS011;59999;51.676;22.650;2023-05-10T12:53:05;6.43;;;1.70;;
72125;SDS011;59999;51.676;22.650;2023-05-10T12:55:31;6.13;;;1.95;;
72125;SDS011;59999;51.676;22.650;2023-05-10T12:57:57;5.43;;;1.80;;
72125;SDS011;59999;51.676;22.650;2023-05-10T13:00:23;10.40;;;2.60;;
72125;SDS011;59999;51.676;22.650;2023-05-10T13:02:49;4.53;;;1.70;;
72125;SDS011;59999;51.676;22.650;2023-05-10T13:05:15;6.75;;;1.92;;
72125;SDS011;59999;51.676;22.650;2023-05-10T13:07:40;4.60;;;1.53;;
72125;SDS011;59999;51.676;22.650;2023-05-10T13:10:07;5.40;;;1.67;;
72125;SDS011;59999;51.676;22.650;2023-05-10T13:12:32;5.82;;;1.63;;
72125;SDS011;59999;51.676;22.650;2023-05-10T13:14:58;6.17;;;1.80;;
72125;SDS011;59999;51.676;22.650;2023-05-10T13:17:25;5.07;;;1.40;;
72125;SDS011;59999;51.676;22.650;2023-05-10T13:19:51;5.25;;;1.70;;
72125;SDS011;59999;51.676;22.650;2023-05-10T13:22:17;4.43;;;1.50;;
72125;SDS011;59999;51.676;22.650;2023-05-10T13:24:43;4.35;;;1.50;;
72125;SDS011;59999;51.676;22.650;2023-05-10T13:27:09;4.43;;;1.67;;
72125;SDS011;59999;51.676;22.650;2023-05-10T13:29:35;6.87;;;1.40;;
72125;SDS011;59999;51.676;22.650;2023-05-10T13:32:01;4.95;;;1.60;;
72125;SDS011;59999;51.676;22.650;2023-05-10T13:34:27;5.40;;;2.10;;
72125;SDS011;59999;51.676;22.650;2023-05-10T13:36:53;3.60;;;1.43;;
72125;SDS011;59999;51.676;22.650;2023-05-10T13:39:21;4.63;;;1.77;;
72125;SDS011;59999;51.676;22.650;2023-05-10T13:41:47;4.93;;;1.77;;
72125;SDS011;59999;51.676;22.650;2023-05-10T13:44:14;5.22;;;1.67;;
72125;SDS011;59999;51.676;22.650;2023-05-10T13:46:41;5.35;;;1.60;;
72125;SDS011;59999;51.676;22.650;2023-05-10T13:49:10;4.30;;;1.40;;
72125;SDS011;59999;51.676;22.650;2023-05-10T13:51:36;5.75;;;1.70;;
72125;SDS011;59999;51.676;22.650;2023-05-10T13:54:03;5.68;;;1.88;;
72125;SDS011;59999;51.676;22.650;2023-05-10T13:56:29;8.35;;;1.50;;
72125;SDS011;59999;51.676;22.650;2023-05-10T13:58:56;4.75;;;1.80;;
72125;SDS011;59999;51.676;22.650;2023-05-10T14:01:23;6.97;;;1.80;;
72125;SDS011;59999;51.676;22.650;2023-05-10T14:03:49;5.20;;;1.70;;
72125;SDS011;59999;51.676;22.650;2023-05-10T14:06:15;6.22;;;2.20;;
72125;SDS011;59999;51.676;22.650;2023-05-10T14:08:41;5.05;;;2.15;;
72125;SDS011;59999;51.676;22.650;2023-05-10T14:11:07;8.23;;;1.90;;
72125;SDS011;59999;51.676;22.650;2023-05-10T14:13:34;5.53;;;2.00;;
72125;SDS011;59999;51.676;22.650;2023-05-10T14:16:00;4.75;;;1.60;;
72125;SDS011;59999;51.676;22.650;2023-05-10T14:18:27;4.38;;;1.90;;
72125;SDS011;59999;51.676;22.650;2023-05-10T14:20:53;5.83;;;1.80;;
72125;SDS011;59999;51.676;22.650;2023-05-10T14:23:20;6.88;;;1.88;;
72125;SDS011;59999;51.676;22.650;2023-05-10T14:25:49;9.60;;;1.85;;
72125;SDS011;59999;51.676;22.650;2023-05-10T14:28:16;5.15;;;1.70;;
72125;SDS011;59999;51.676;22.650;2023-05-10T14:30:43;5.80;;;1.90;;
72125;SDS011;59999;51.676;22.650;2023-05-10T14:33:10;5.60;;;1.90;;
72125;SDS011;59999;51.676;22.650;2023-05-10T14:35:36;4.85;;;1.83;;
72125;SDS011;59999;51.676;22.650;2023-05-10T14:38:03;5.35;;;1.80;;
72125;SDS011;59999;51.676;22.650;2023-05-10T14:40:29;4.70;;;1.88;;
72125;SDS011;59999;51.676;22.650;2023-05-10T14:42:55;5.50;;;1.83;;
72125;SDS011;59999;51.676;22.650;2023-05-10T14:45:21;5.22;;;1.70;;
72125;SDS011;59999;51.676;22.650;2023-05-10T14:47:49;4.47;;;1.88;;
72125;SDS011;59999;51.676;22.650;2023-05-10T14:50:15;4.88;;;1.80;;
72125;SDS011;59999;51.676;22.650;2023-05-10T14:52:42;4.53;;;2.17;;
72125;SDS011;59999;51.676;22.650;2023-05-10T14:55:08;5.23;;;1.80;;
72125;SDS011;59999;51.676;22.650;2023-05-10T14:57:34;4.32;;;1.88;;
72125;SDS011;59999;51.676;22.650;2023-05-10T15:00:00;5.18;;;2.00;;
72125;SDS011;59999;51.676;22.650;2023-05-10T15:02:26;5.87;;;2.00;;
72125;SDS011;59999;51.676;22.650;2023-05-10T15:04:52;6.43;;;1.80;;
72125;SDS011;59999;51.676;22.650;2023-05-10T15:07:18;7.35;;;2.00;;
72125;SDS011;59999;51.676;22.650;2023-05-10T15:09:44;5.22;;;1.63;;
72125;SDS011;59999;51.676;22.650;2023-05-10T15:14:55;6.40;;;2.10;;
72125;SDS011;59999;51.676;22.650;2023-05-10T15:17:21;5.30;;;1.75;;
72125;SDS011;59999;51.676;22.650;2023-05-10T15:19:47;4.40;;;2.00;;
72125;SDS011;59999;51.676;22.650;2023-05-10T15:22:14;5.77;;;2.30;;